Terminal Aerodrome Forecast
Issued by NWS

Home | Current Version | Previous Version | Text Only | Print | Product List | Glossary On
Versions: 1 2 3 4 5 6 7 8 9 10 11 12 13 14 15 16
873
FTUS45 KTFX 131136
TAFBZN
TAF
KBZN 131136Z 1312/1412 VRB05KT P6SM SCT090 BKN150
      TEMPO 1312/1315 4SM BR
     FM131500 25010KT P6SM VCSH SCT030 BKN060
      TEMPO 1317/1321 5SM -SHRASN BKN030
     FM132100 28014G22KT P6SM SCT040 BKN090
     FM140300 21008KT P6SM BKN120=

USA.gov is the U.S. government's official web portal to all federal, state and local government web resources and services.